Time;durP1;ratioP1;P1;durP2;ratioP2;P2;SDS_P1;SDS_P2;PMS_P1;PMS_P2;Temp;Humidity;BMP_temperature;BMP_pressure;BME280_temperature;BME280_humidity;BME280_pressure;Samples;Min_cycle;Max_cycle;Signal;HPM_P1;HPM_P2
2022/01/20 00:02:27;;;;;;;21.50;15.80;;;-0.40;99.90;;;;;;5077333;28;20160;-86
2022/01/20 00:05:08;;;;;;;22.50;16.20;;;-0.40;99.90;;;;;;5060090;28;20181;-87
2022/01/20 00:08:00;;;;;;;20.67;15.40;;;-0.60;99.90;;;;;;5080147;28;20226;-87
2022/01/20 00:26:55;;;;;;;20.77;15.37;;;-0.70;99.90;;;;;;5075688;28;20261;-87
2022/01/20 00:29:28;;;;;;;20.90;15.60;;;-0.70;99.90;;;;;;5078451;28;20171;-87
2022/01/20 00:32:33;;;;;;;22.37;15.47;;;-0.80;99.90;;;;;;5075888;28;20213;-87
2022/01/20 00:37:15;;;;;;;23.57;15.00;;;-0.70;99.90;;;;;;5071616;28;20279;-87
2022/01/20 00:37:32;;;;;;;22.50;14.30;;;-0.70;99.90;;;;;;5061602;28;20175;-88
2022/01/20 00:39:59;;;;;;;26.87;15.57;;;-0.60;99.90;;;;;;5078413;28;20194;-87
2022/01/20 00:42:25;;;;;;;22.30;15.57;;;-0.70;99.90;;;;;;5067168;28;20175;-87
2022/01/20 00:44:51;;;;;;;24.30;15.27;;;-0.80;99.90;;;;;;5092960;28;20175;-87
2022/01/20 00:47:18;;;;;;;20.50;14.77;;;-0.80;99.90;;;;;;5076824;28;20280;-87
2022/01/20 00:49:44;;;;;;;23.13;15.70;;;-0.80;99.90;;;;;;5057557;28;20212;-87
2022/01/20 00:52:10;;;;;;;27.43;15.07;;;-0.80;99.90;;;;;;5075343;28;20184;-87
2022/01/20 00:54:37;;;;;;;23.97;14.70;;;-0.80;99.90;;;;;;5074974;28;20186;-87
2022/01/20 00:57:03;;;;;;;25.03;14.20;;;-0.80;99.90;;;;;;5075046;28;20171;-87
2022/01/20 00:59:32;;;;;;;23.33;15.63;;;-0.90;99.90;;;;;;5075038;28;20171;-86
2022/01/20 01:02:02;;;;;;;19.57;14.63;;;-0.90;99.90;;;;;;5057089;28;20179;-87
2022/01/20 01:04:28;;;;;;;26.40;15.97;;;-0.90;99.90;;;;;;5074792;28;20176;-87
2022/01/20 01:09:40;;;;;;;24.90;16.07;;;-1.00;99.90;;;;;;5075477;28;20197;-87
2022/01/20 01:12:11;;;;;;;23.10;15.90;;;-1.10;99.90;;;;;;5057101;28;20295;-87
2022/01/20 01:14:42;;;;;;;26.33;16.03;;;-1.00;99.90;;;;;;5093551;28;20152;-87
2022/01/20 01:24:45;;;;;;;25.10;16.03;;;-0.90;99.90;;;;;;5080599;28;20710;-86
2022/01/20 01:27:13;;;;;;;21.73;14.60;;;-0.90;99.90;;;;;;5074971;28;20277;-87
2022/01/20 01:30:03;;;;;;;20.20;15.13;;;-0.90;99.90;;;;;;5074676;28;20193;-87
2022/01/20 01:32:51;;;;;;;23.37;15.70;;;-0.80;99.90;;;;;;5074520;28;20179;-86
2022/01/20 01:35:15;;;;;;;24.27;15.43;;;-0.70;99.90;;;;;;5074108;28;20179;-86
2022/01/20 01:40:09;;;;;;;22.17;13.77;;;-0.60;99.90;;;;;;5074996;28;20732;-87
2022/01/20 01:42:46;;;;;;;17.70;13.70;;;-0.70;99.90;;;;;;5074497;28;20171;-87
2022/01/20 01:45:18;;;;;;;21.43;13.47;;;-0.80;99.90;;;;;;5056227;28;20571;-86
2022/01/20 01:47:45;;;;;;;19.93;13.13;;;-0.80;99.90;;;;;;5056247;28;20199;-87
2022/01/20 01:50:11;;;;;;;22.73;13.27;;;-0.90;99.90;;;;;;5074091;28;20186;-86
2022/01/20 01:52:37;;;;;;;21.30;13.90;;;-0.90;99.90;;;;;;5074631;28;20176;-87
2022/01/20 01:55:03;;;;;;;18.40;13.60;;;-0.90;99.90;;;;;;5074437;28;20170;-86
2022/01/20 01:57:29;;;;;;;21.60;12.93;;;-0.80;99.90;;;;;;5075755;28;20635;-87
2022/01/20 01:59:55;;;;;;;18.17;13.33;;;-0.80;99.90;;;;;;5076741;28;20246;-86
2022/01/20 02:02:22;;;;;;;21.43;13.83;;;-0.80;99.90;;;;;;5074267;28;20183;-87
2022/01/20 02:04:49;;;;;;;22.40;14.07;;;-0.90;99.90;;;;;;5055759;28;20275;-86
2022/01/20 02:18:43;;;;;;;18.80;13.20;;;-1.00;99.90;;;;;;5074114;28;20583;-86
2022/01/20 02:21:09;;;;;;;17.83;13.07;;;-1.00;99.90;;;;;;5055720;28;20253;-87
2022/01/20 02:23:35;;;;;;;20.90;14.10;;;-1.10;99.90;;;;;;5073473;28;20576;-87
2022/01/20 02:26:01;;;;;;;18.97;13.23;;;-1.00;99.90;;;;;;5055653;28;20182;-86
2022/01/20 02:28:27;;;;;;;19.93;12.57;;;-1.00;99.90;;;;;;5073605;28;20578;-86
2022/01/20 02:30:54;;;;;;;21.50;13.87;;;-1.00;99.90;;;;;;5074590;28;20220;-86
2022/01/20 02:33:22;;;;;;;16.43;12.33;;;-1.00;99.90;;;;;;5079745;28;20174;-86
2022/01/20 02:36:02;;;;;;;19.17;14.00;;;-1.00;99.90;;;;;;5074957;28;20224;-86
2022/01/20 02:38:45;;;;;;;18.87;13.00;;;-1.10;99.90;;;;;;5074165;28;20155;-86
2022/01/20 02:46:40;;;;;;;17.93;12.87;;;-1.10;99.90;;;;;;5073347;28;20206;-87
2022/01/20 02:49:09;;;;;;;19.27;12.77;;;-1.10;99.90;;;;;;5073262;28;20167;-86
2022/01/20 02:51:35;;;;;;;18.23;12.90;;;-1.10;99.90;;;;;;5073090;28;20171;-86
2022/01/20 02:54:02;;;;;;;14.00;11.27;;;-1.10;99.90;;;;;;5073155;28;20171;-86
2022/01/20 02:56:28;;;;;;;17.70;12.37;;;-1.10;99.90;;;;;;5073063;28;20537;-86
2022/01/20 02:58:53;;;;;;;14.73;11.37;;;-1.10;99.90;;;;;;5073010;28;20175;-86
2022/01/20 03:01:19;;;;;;;18.17;12.83;;;-1.10;99.90;;;;;;5057446;28;20198;-86
2022/01/20 03:03:45;;;;;;;20.83;13.13;;;-1.10;99.90;;;;;;5072948;28;20175;-86
2022/01/20 03:06:11;;;;;;;20.87;13.63;;;-1.00;99.90;;;;;;5072917;28;20222;-86
2022/01/20 03:08:39;;;;;;;20.00;13.30;;;-1.00;99.90;;;;;;5054969;28;20247;-86
2022/01/20 03:11:05;;;;;;;16.90;12.63;;;-0.90;99.90;;;;;;5073097;28;20178;-86
2022/01/20 03:13:30;;;;;;;19.97;13.23;;;-0.90;99.90;;;;;;5072996;28;20179;-86
2022/01/20 03:15:56;;;;;;;19.33;13.03;;;-0.90;99.90;;;;;;5054937;28;20171;-87
2022/01/20 03:18:22;;;;;;;17.23;13.33;;;-0.90;99.90;;;;;;5075896;28;20176;-86
2022/01/20 03:20:48;;;;;;;19.30;13.03;;;-0.90;99.90;;;;;;5072760;28;20177;-86
2022/01/20 03:23:14;;;;;;;18.93;12.67;;;-0.90;99.90;;;;;;5072539;28;20244;-86
2022/01/20 03:25:39;;;;;;;16.70;12.87;;;-0.90;99.90;;;;;;5072905;28;20213;-86
2022/01/20 03:28:05;;;;;;;18.53;13.57;;;-0.90;99.90;;;;;;5054640;28;20214;-87
2022/01/20 03:30:31;;;;;;;18.87;13.23;;;-1.00;99.90;;;;;;5054861;28;20214;-86
2022/01/20 03:32:57;;;;;;;19.77;13.30;;;-1.00;99.90;;;;;;5072722;28;20282;-87
2022/01/20 03:35:23;;;;;;;17.23;13.23;;;-0.90;99.90;;;;;;5072800;28;20172;-86
2022/01/20 03:37:49;;;;;;;20.63;12.90;;;-0.90;99.90;;;;;;5072638;28;20171;-87
2022/01/20 03:40:15;;;;;;;19.80;13.70;;;-0.90;99.90;;;;;;5072643;28;20576;-86
2022/01/20 03:42:40;;;;;;;19.57;13.30;;;-0.90;99.90;;;;;;5072440;28;20171;-86
2022/01/20 03:45:07;;;;;;;19.33;13.23;;;-0.90;99.90;;;;;;5054734;28;20230;-86
2022/01/20 03:47:33;;;;;;;19.67;13.20;;;-1.00;99.90;;;;;;5072511;28;20203;-86
2022/01/20 03:52:25;;;;;;;19.47;13.37;;;-0.90;99.90;;;;;;5072497;28;20176;-87
2022/01/20 03:54:51;;;;;;;19.10;13.53;;;-0.90;99.90;;;;;;5075868;28;20168;-86
2022/01/20 03:57:18;;;;;;;19.13;13.80;;;-0.90;99.90;;;;;;5058160;28;20554;-86
2022/01/20 03:59:44;;;;;;;17.40;13.40;;;-0.90;99.90;;;;;;5076288;28;20159;-87
2022/01/20 04:02:10;;;;;;;21.17;14.43;;;-0.90;99.90;;;;;;5076156;28;20541;-87
2022/01/20 04:04:36;;;;;;;23.70;13.73;;;-0.80;99.90;;;;;;5076115;28;20216;-87
2022/01/20 04:07:03;;;;;;;20.60;14.20;;;-0.80;99.90;;;;;;5076072;28;20203;-86
2022/01/20 04:09:29;;;;;;;19.37;14.20;;;-0.80;99.90;;;;;;5058436;28;20182;-86
2022/01/20 04:11:55;;;;;;;21.03;14.47;;;-0.90;99.90;;;;;;5076702;28;20529;-87
2022/01/20 04:14:23;;;;;;;21.57;13.20;;;-0.80;99.90;;;;;;5058440;28;20183;-86
2022/01/20 04:17:16;;;;;;;17.73;13.67;;;-0.90;99.90;;;;;;5058158;28;20263;-87
2022/01/20 04:19:36;;;;;;;19.40;12.60;;;-0.90;99.90;;;;;;5075583;28;20189;-87
2022/01/20 04:22:02;;;;;;;16.63;13.33;;;-0.90;99.90;;;;;;5076842;28;20167;-86
2022/01/20 04:24:28;;;;;;;16.93;13.13;;;-0.90;99.90;;;;;;5091882;28;20219;-87
2022/01/20 04:26:54;;;;;;;16.10;13.37;;;-1.00;99.90;;;;;;5099195;28;20209;-86
2022/01/20 04:29:20;;;;;;;17.97;13.37;;;-1.00;99.90;;;;;;5059367;28;20512;-86
2022/01/20 04:31:46;;;;;;;18.43;14.07;;;-1.00;99.90;;;;;;5076309;28;20179;-86
2022/01/20 04:34:13;;;;;;;17.97;12.40;;;-1.00;99.90;;;;;;5075834;28;20171;-87
2022/01/20 04:36:42;;;;;;;19.30;12.60;;;-1.10;99.90;;;;;;5075863;28;20174;-86
2022/01/20 04:39:15;;;;;;;17.30;12.93;;;-1.10;99.90;;;;;;5058850;28;20167;-87
2022/01/20 04:41:41;;;;;;;17.43;12.60;;;-1.10;99.90;;;;;;5075651;28;20163;-86
2022/01/20 04:44:17;;;;;;;18.40;12.50;;;-1.20;99.90;;;;;;5057884;28;20198;-86
2022/01/20 04:46:57;;;;;;;17.97;12.83;;;-1.20;99.90;;;;;;5057411;28;20256;-86
2022/01/20 04:57:35;;;;;;;19.20;12.63;;;-1.20;99.90;;;;;;5075274;28;20261;-86
2022/01/20 05:00:01;;;;;;;18.37;12.83;;;-1.20;99.90;;;;;;5076756;28;20171;-86
2022/01/20 05:02:28;;;;;;;18.97;12.00;;;-1.10;99.90;;;;;;5075210;28;20653;-87
2022/01/20 05:04:54;;;;;;;16.00;11.83;;;-1.10;99.90;;;;;;5074610;28;20168;-87
2022/01/20 05:07:24;;;;;;;15.57;12.30;;;-1.10;99.90;;;;;;5075035;28;20688;-86
2022/01/20 05:09:52;;;;;;;15.60;11.17;;;-1.20;99.90;;;;;;5057412;28;20543;-86
2022/01/20 05:12:23;;;;;;;20.13;12.13;;;-1.10;99.90;;;;;;5075052;28;20221;-87
2022/01/20 05:14:49;;;;;;;18.47;12.47;;;-1.00;99.90;;;;;;5056950;28;20171;-86
2022/01/20 05:17:15;;;;;;;18.93;14.23;;;-1.10;99.90;;;;;;5075007;28;20172;-87
2022/01/20 05:19:41;;;;;;;19.13;12.93;;;-1.10;99.90;;;;;;5056770;28;20182;-86
2022/01/20 05:22:06;;;;;;;25.97;17.47;;;-1.20;99.90;;;;;;5074645;28;20260;-86
2022/01/20 05:24:32;;;;;;;30.47;17.33;;;-1.20;99.90;;;;;;5075055;28;20352;-86
2022/01/20 05:26:58;;;;;;;26.17;18.07;;;-1.10;99.90;;;;;;5056680;28;20688;-87
2022/01/20 05:29:25;;;;;;;27.77;18.70;;;-1.10;99.90;;;;;;5074881;28;20171;-87
2022/01/20 05:31:51;;;;;;;27.10;18.63;;;-1.20;99.90;;;;;;5074566;28;20618;-87
2022/01/20 05:34:17;;;;;;;27.40;19.20;;;-1.20;99.90;;;;;;5074353;28;20639;-86
2022/01/20 05:36:46;;;;;;;29.20;19.50;;;-1.20;99.90;;;;;;5074470;28;20627;-86
2022/01/20 05:39:12;;;;;;;26.43;17.83;;;-1.20;99.90;;;;;;5075304;28;20171;-87
2022/01/20 05:41:38;;;;;;;28.97;18.50;;;-1.20;99.90;;;;;;5074355;28;20176;-86
2022/01/20 05:44:04;;;;;;;25.90;17.70;;;-1.20;99.90;;;;;;5074294;28;20203;-86
2022/01/20 05:46:36;;;;;;;31.77;19.47;;;-1.20;99.90;;;;;;5074375;28;20245;-86
2022/01/20 05:49:10;;;;;;;25.23;16.30;;;-1.20;99.90;;;;;;5074185;28;20222;-87
2022/01/20 05:51:37;;;;;;;22.50;15.27;;;-1.20;99.90;;;;;;5074107;28;20190;-86
2022/01/20 05:54:03;;;;;;;18.17;12.33;;;-1.10;99.90;;;;;;5074344;28;20244;-86
2022/01/20 05:56:29;;;;;;;21.87;12.97;;;-1.10;99.90;;;;;;5074062;28;20168;-86
2022/01/20 05:58:55;;;;;;;19.07;12.03;;;-1.10;99.90;;;;;;5074254;28;20225;-87
2022/01/20 06:01:21;;;;;;;14.33;11.43;;;-1.10;99.90;;;;;;5056273;28;20650;-86
2022/01/20 06:03:46;;;;;;;13.27;11.00;;;-1.10;99.90;;;;;;5074066;28;20163;-86
2022/01/20 06:06:13;;;;;;;16.50;11.83;;;-1.20;99.90;;;;;;5074568;28;20529;-86
2022/01/20 06:08:41;;;;;;;17.53;11.17;;;-1.10;99.90;;;;;;5056327;28;20602;-86
2022/01/20 06:11:08;;;;;;;18.30;11.13;;;-1.10;99.90;;;;;;5074507;28;20170;-86
2022/01/20 06:13:34;;;;;;;13.50;10.83;;;-1.10;99.90;;;;;;5063161;28;20179;-86
2022/01/20 06:16:00;;;;;;;15.30;10.63;;;-1.10;99.90;;;;;;5073786;28;20183;-86
2022/01/20 06:18:26;;;;;;;15.57;11.43;;;-1.30;99.90;;;;;;5092501;28;20185;-86
2022/01/20 06:20:52;;;;;;;12.77;10.90;;;-1.20;99.90;;;;;;5078232;28;20167;-86
2022/01/20 06:23:19;;;;;;;15.47;10.87;;;-1.20;99.90;;;;;;5062831;28;20222;-87
2022/01/20 06:25:45;;;;;;;15.10;10.87;;;-1.20;99.90;;;;;;5057957;28;20183;-86
2022/01/20 06:28:11;;;;;;;15.07;11.03;;;-1.20;99.90;;;;;;5074030;28;20685;-86
2022/01/20 06:30:37;;;;;;;16.87;11.47;;;-1.10;99.90;;;;;;5056011;28;20182;-86
2022/01/20 06:33:04;;;;;;;16.40;11.10;;;-1.00;99.90;;;;;;5055856;28;20228;-86
2022/01/20 06:35:31;;;;;;;20.37;11.93;;;-1.10;99.90;;;;;;5073605;28;20174;-86
2022/01/20 06:37:57;;;;;;;18.37;11.50;;;-1.00;99.90;;;;;;5073337;28;20206;-86
2022/01/20 06:40:23;;;;;;;15.63;10.87;;;-0.90;99.90;;;;;;5074009;28;20172;-86
2022/01/20 06:42:49;;;;;;;15.20;10.60;;;-0.90;99.90;;;;;;5076007;28;20274;-86
2022/01/20 06:45:17;;;;;;;17.70;10.97;;;-0.80;99.90;;;;;;5055497;28;20179;-86
2022/01/20 06:47:43;;;;;;;14.07;10.73;;;-0.70;99.90;;;;;;5073164;28;20557;-86
2022/01/20 06:50:11;;;;;;;17.97;12.83;;;-0.70;99.90;;;;;;5073400;28;20259;-86
2022/01/20 06:52:38;;;;;;;16.30;11.10;;;-0.70;99.90;;;;;;5073213;28;20191;-85
2022/01/20 06:55:07;;;;;;;16.83;11.73;;;-0.70;99.90;;;;;;5073096;28;20221;-87
2022/01/20 06:57:34;;;;;;;20.77;10.97;;;-0.70;99.90;;;;;;5072519;28;20228;-85
2022/01/20 07:00:01;;;;;;;19.20;11.07;;;-0.80;99.90;;;;;;5073245;28;20174;-84
2022/01/20 07:02:27;;;;;;;16.10;11.60;;;-0.80;99.90;;;;;;5073081;28;20172;-86
2022/01/20 07:04:53;;;;;;;15.17;11.37;;;-0.90;99.90;;;;;;5074894;28;20171;-86
2022/01/20 07:07:19;;;;;;;15.13;10.73;;;-0.90;99.90;;;;;;5073365;28;20203;-85
2022/01/20 07:09:45;;;;;;;15.47;10.73;;;-0.90;99.90;;;;;;5055634;28;20179;-86
2022/01/20 07:12:12;;;;;;;17.03;11.90;;;-0.80;99.90;;;;;;5075979;28;20179;-86
2022/01/20 07:14:39;;;;;;;14.53;10.97;;;-0.80;99.90;;;;;;5058039;28;20238;-93
2022/01/20 07:17:05;;;;;;;14.47;10.90;;;-0.90;99.90;;;;;;5056565;28;20175;-85
2022/01/20 07:19:32;;;;;;;13.03;10.70;;;-0.80;99.90;;;;;;5073382;28;20211;-86
2022/01/20 07:21:58;;;;;;;20.80;11.10;;;-0.80;99.90;;;;;;5072946;28;20185;-86
2022/01/20 07:24:27;;;;;;;18.43;12.40;;;-0.70;99.90;;;;;;5072668;28;20277;-86
2022/01/20 07:26:53;;;;;;;15.50;11.30;;;-0.60;99.90;;;;;;5072749;28;20203;-86
2022/01/20 07:29:19;;;;;;;19.63;11.63;;;-0.50;99.90;;;;;;5077107;28;20182;-86
2022/01/20 07:31:45;;;;;;;18.00;10.93;;;-0.50;99.90;;;;;;5077940;28;20537;-86
2022/01/20 07:34:11;;;;;;;18.57;10.73;;;-0.40;99.90;;;;;;5078015;28;20330;-85
2022/01/20 07:36:37;;;;;;;17.57;10.93;;;-0.40;99.90;;;;;;5079738;28;20180;-86
2022/01/20 07:39:04;;;;;;;18.13;11.60;;;-0.40;99.90;;;;;;5083286;28;20176;-85
2022/01/20 07:41:30;;;;;;;17.13;11.17;;;-0.40;99.90;;;;;;5086333;28;20208;-85
2022/01/20 07:43:56;;;;;;;18.27;11.37;;;-0.20;99.90;;;;;;5063987;28;20241;-85
2022/01/20 07:46:22;;;;;;;14.77;10.53;;;-0.20;99.90;;;;;;5063343;28;20179;-85
2022/01/20 07:48:48;;;;;;;14.43;10.60;;;0.00;99.90;;;;;;5058166;28;20196;-86
2022/01/20 07:51:15;;;;;;;16.93;10.30;;;0.10;99.90;;;;;;5076997;28;20181;-87
2022/01/20 07:53:41;;;;;;;16.13;10.80;;;0.20;99.90;;;;;;5077536;28;20167;-87
2022/01/20 07:56:07;;;;;;;17.90;10.73;;;0.30;99.90;;;;;;5059261;28;20542;-86
2022/01/20 07:58:37;;;;;;;14.47;10.43;;;0.50;99.90;;;;;;5077072;28;20192;-88
2022/01/20 08:01:04;;;;;;;14.77;9.97;;;0.80;99.90;;;;;;5077519;28;20632;-87
2022/01/20 08:03:30;;;;;;;19.77;10.27;;;1.20;99.90;;;;;;5077506;28;20174;-87
2022/01/20 08:05:56;;;;;;;13.10;10.03;;;1.40;99.90;;;;;;5079832;28;20186;-87
2022/01/20 08:08:22;;;;;;;16.17;10.10;;;1.60;99.90;;;;;;5088276;28;20706;-87
2022/01/20 08:10:48;;;;;;;21.70;10.10;;;1.70;99.90;;;;;;5072075;28;20235;-88
2022/01/20 08:13:14;;;;;;;13.07;10.30;;;1.80;99.90;;;;;;5060237;28;20598;-87
2022/01/20 08:15:40;;;;;;;13.30;10.40;;;1.90;99.90;;;;;;5060175;28;20185;-87
2022/01/20 08:18:07;;;;;;;14.97;10.50;;;2.00;99.90;;;;;;5077588;28;20170;-87
2022/01/20 08:20:34;;;;;;;17.43;10.93;;;2.10;99.90;;;;;;5058986;28;20184;-88
2022/01/20 08:23:01;;;;;;;17.10;10.77;;;2.20;99.90;;;;;;5077113;28;20163;-87
2022/01/20 08:25:27;;;;;;;21.67;11.13;;;2.10;99.90;;;;;;5062050;28;20228;-87
2022/01/20 08:27:53;;;;;;;17.30;11.10;;;2.10;99.90;;;;;;5077031;28;20210;-87
2022/01/20 08:30:24;;;;;;;16.70;10.70;;;2.00;99.90;;;;;;5061874;28;20175;-87
2022/01/20 08:32:50;;;;;;;18.67;11.07;;;2.00;99.90;;;;;;5076806;28;20170;-87
2022/01/20 08:35:18;;;;;;;14.73;11.00;;;2.10;99.90;;;;;;5059474;28;20171;-87
2022/01/20 08:37:45;;;;;;;17.07;11.10;;;2.00;99.90;;;;;;5077362;28;20265;-87
2022/01/20 08:40:14;;;;;;;14.67;11.80;;;2.10;99.90;;;;;;5075161;28;20250;-87
2022/01/20 08:42:45;;;;;;;14.77;11.20;;;2.20;99.90;;;;;;5075900;28;20179;-87
2022/01/20 08:45:13;;;;;;;18.03;10.37;;;2.20;99.90;;;;;;5076505;28;20254;-86
2022/01/20 08:47:40;;;;;;;16.93;11.53;;;2.20;99.90;;;;;;5059474;28;20232;-87
2022/01/20 08:50:07;;;;;;;13.50;10.33;;;2.30;99.90;;;;;;5059242;28;20184;-87
2022/01/20 08:52:33;;;;;;;14.30;10.67;;;2.30;99.90;;;;;;5075698;28;20171;-88
2022/01/20 08:54:59;;;;;;;17.47;10.80;;;2.30;99.90;;;;;;5076019;28;20252;-88
2022/01/20 08:57:26;;;;;;;15.50;11.47;;;2.40;99.90;;;;;;5076323;28;20170;-87
2022/01/20 08:59:53;;;;;;;17.23;11.53;;;2.40;99.90;;;;;;5077352;28;20178;-87
2022/01/20 09:02:19;;;;;;;13.37;10.97;;;2.50;99.90;;;;;;5077747;28;20178;-88
2022/01/20 09:04:45;;;;;;;16.13;11.03;;;2.60;99.90;;;;;;5060599;28;20175;-88
2022/01/20 09:07:11;;;;;;;21.53;11.43;;;2.70;99.90;;;;;;5061620;28;20209;-87
2022/01/20 09:09:46;;;;;;;19.13;12.40;;;2.80;99.90;;;;;;5081024;28;20174;-87
2022/01/20 09:12:18;;;;;;;20.37;11.87;;;2.80;99.90;;;;;;5057917;28;20170;-87
2022/01/20 09:17:31;;;;;;;21.23;13.93;;;2.80;99.90;;;;;;5075610;28;20173;-87
2022/01/20 09:19:59;;;;;;;20.40;13.57;;;2.90;99.90;;;;;;5046395;28;20257;-87
2022/01/20 09:22:27;;;;;;;18.67;13.07;;;2.90;99.90;;;;;;5065403;28;20178;-87
2022/01/20 09:24:53;;;;;;;23.87;14.73;;;3.00;99.90;;;;;;5063862;28;20582;-87
2022/01/20 09:27:19;;;;;;;22.13;14.30;;;3.10;99.90;;;;;;5061430;28;20204;-88
2022/01/20 09:29:46;;;;;;;27.37;13.40;;;3.20;99.90;;;;;;5043472;28;20172;-87
2022/01/20 09:32:13;;;;;;;22.63;14.03;;;3.30;99.90;;;;;;5055549;28;20181;-87
2022/01/20 09:34:41;;;;;;;20.70;14.53;;;3.30;99.90;;;;;;5037151;28;20213;-87
2022/01/20 09:37:07;;;;;;;20.57;13.73;;;3.40;99.90;;;;;;5055695;28;20173;-88
2022/01/20 09:39:33;;;;;;;26.50;14.20;;;3.40;99.90;;;;;;5055152;28;20179;-87
2022/01/20 09:42:00;;;;;;;23.37;14.50;;;3.40;99.90;;;;;;5054635;28;20225;-87
2022/01/20 09:44:26;;;;;;;29.50;15.70;;;3.40;99.90;;;;;;5036764;28;20259;-87
2022/01/20 09:46:52;;;;;;;22.10;15.23;;;3.60;99.90;;;;;;5036685;28;20210;-87
2022/01/20 09:49:18;;;;;;;26.87;14.70;;;3.60;99.90;;;;;;5054527;28;20245;-87
2022/01/20 09:51:44;;;;;;;24.10;14.23;;;3.70;99.90;;;;;;5054419;28;20619;-87
2022/01/20 09:54:10;;;;;;;21.50;14.27;;;3.80;99.90;;;;;;5037055;28;20178;-87
2022/01/20 09:56:37;;;;;;;24.00;15.17;;;3.90;99.90;;;;;;5056898;28;20168;-87
2022/01/20 09:59:04;;;;;;;24.70;15.23;;;3.80;99.90;;;;;;5052307;28;20178;-86
2022/01/20 10:01:48;;;;;;;24.27;15.23;;;3.90;99.90;;;;;;5066167;28;20163;-87
2022/01/20 10:04:22;;;;;;;28.17;16.63;;;4.10;99.90;;;;;;5055105;28;20168;-87
2022/01/20 10:06:54;;;;;;;28.50;15.60;;;4.10;99.90;;;;;;5056020;28;20202;-87
2022/01/20 10:09:36;;;;;;;61.17;23.80;;;4.10;99.90;;;;;;5039824;28;20169;-87
2022/01/20 10:12:03;;;;;;;32.93;17.47;;;4.20;99.90;;;;;;5038627;28;20172;-87
2022/01/20 10:14:47;;;;;;;36.10;17.30;;;4.20;99.90;;;;;;5045201;28;20198;-86
2022/01/20 10:17:15;;;;;;;30.77;14.97;;;4.40;99.90;;;;;;5056768;28;20171;-87
2022/01/20 10:19:41;;;;;;;30.17;14.83;;;4.40;99.90;;;;;;5056969;28;20179;-87
2022/01/20 10:22:15;;;;;;;24.53;14.67;;;4.40;99.90;;;;;;5069134;28;20220;-86
2022/01/20 10:24:42;;;;;;;23.47;14.23;;;4.50;99.90;;;;;;5064903;28;20597;-87
2022/01/20 10:27:10;;;;;;;28.23;15.40;;;4.40;99.90;;;;;;5035424;28;20675;-87
2022/01/20 10:29:36;;;;;;;33.70;15.83;;;4.50;99.90;;;;;;5053656;28;20183;-87
2022/01/20 10:32:02;;;;;;;24.83;13.97;;;4.50;99.90;;;;;;5039316;28;20180;-86
2022/01/20 10:34:35;;;;;;;23.70;15.83;;;4.40;99.90;;;;;;5061984;28;20164;-86
2022/01/20 10:37:14;;;;;;;26.87;14.83;;;4.40;99.90;;;;;;5044826;28;20183;-86
2022/01/20 10:39:45;;;;;;;25.83;15.37;;;4.60;99.90;;;;;;5026563;28;20563;-86
2022/01/20 10:42:16;;;;;;;23.13;14.73;;;4.70;99.90;;;;;;5059961;28;20538;-87
2022/01/20 10:44:48;;;;;;;30.67;14.10;;;5.00;99.90;;;;;;5041583;28;20183;-87
2022/01/20 10:47:16;;;;;;;23.50;13.43;;;5.10;99.90;;;;;;5059982;28;20188;-86
2022/01/20 10:49:43;;;;;;;28.20;14.30;;;5.20;99.90;;;;;;5042434;28;20661;-87
2022/01/20 10:52:11;;;;;;;23.27;13.57;;;5.40;99.90;;;;;;5042550;28;20183;-87
2022/01/20 10:54:42;;;;;;;23.27;14.50;;;5.60;99.90;;;;;;5042147;28;20177;-87
2022/01/20 10:57:10;;;;;;;27.03;14.33;;;5.80;99.90;;;;;;5061363;28;20168;-87
2022/01/20 10:59:54;;;;;;;21.17;13.97;;;5.90;99.50;;;;;;5044392;28;20196;-87
2022/01/20 11:02:27;;;;;;;21.73;13.77;;;6.00;99.20;;;;;;5061587;28;20170;-87
2022/01/20 11:04:53;;;;;;;21.73;13.83;;;6.10;99.10;;;;;;5061534;28;20156;-86
2022/01/20 11:07:20;;;;;;;23.27;14.23;;;6.30;98.90;;;;;;5061883;28;20208;-87
2022/01/20 11:09:51;;;;;;;25.43;13.63;;;6.40;98.20;;;;;;5043862;28;20176;-86
2022/01/20 11:12:17;;;;;;;25.40;12.53;;;6.40;97.40;;;;;;5044110;28;20180;-86
2022/01/20 11:14:50;;;;;;;23.10;12.43;;;6.30;97.60;;;;;;5061422;28;20168;-86
2022/01/20 11:17:30;;;;;;;25.67;11.67;;;6.20;97.50;;;;;;5044001;28;20176;-86
2022/01/20 11:20:08;;;;;;;16.53;11.40;;;6.20;97.30;;;;;;5062350;28;20209;-87
2022/01/20 11:22:34;;;;;;;18.33;11.03;;;6.20;97.40;;;;;;5055955;28;20169;-86
2022/01/20 11:25:07;;;;;;;16.63;11.87;;;6.20;97.40;;;;;;5065640;28;20226;-84
2022/01/20 11:27:42;;;;;;;15.70;12.10;;;6.30;97.00;;;;;;5067871;28;20208;-86
2022/01/20 11:30:18;;;;;;;23.80;11.47;;;6.40;96.40;;;;;;5069635;28;20160;-86
2022/01/20 11:32:56;;;;;;;20.40;11.20;;;6.50;96.60;;;;;;5069710;28;20172;-86
2022/01/20 11:35:21;;;;;;;21.83;10.90;;;6.60;96.00;;;;;;5046805;28;20166;-87
2022/01/20 11:37:58;;;;;;;20.50;11.27;;;6.60;95.90;;;;;;5047180;28;20188;-87
2022/01/20 11:40:25;;;;;;;17.67;11.30;;;6.70;95.90;;;;;;5045120;28;20179;-87
2022/01/20 11:43:07;;;;;;;21.17;12.03;;;6.70;95.90;;;;;;5062405;28;20168;-87
2022/01/20 11:46:01;;;;;;;20.60;12.17;;;6.80;96.20;;;;;;5049426;28;20249;-86
2022/01/20 11:48:29;;;;;;;20.50;13.23;;;6.90;96.50;;;;;;5054254;28;20214;-87
2022/01/20 11:51:07;;;;;;;23.20;13.97;;;6.90;96.60;;;;;;5063759;28;20183;-87
2022/01/20 11:53:41;;;;;;;21.23;14.37;;;7.00;97.00;;;;;;5053296;28;20174;-86
2022/01/20 11:56:07;;;;;;;23.93;14.40;;;7.00;96.70;;;;;;5061294;28;20166;-87
2022/01/20 11:58:33;;;;;;;20.40;14.60;;;7.00;96.80;;;;;;5043453;28;20213;-86
2022/01/20 12:01:04;;;;;;;28.27;14.53;;;7.00;96.80;;;;;;5060270;28;20179;-86
2022/01/20 12:03:32;;;;;;;22.07;15.53;;;7.10;97.00;;;;;;5059248;28;20225;-86
2022/01/20 12:06:12;;;;;;;24.53;16.23;;;7.20;96.80;;;;;;5056342;28;20248;-87
2022/01/20 12:08:54;;;;;;;26.17;16.77;;;7.10;96.70;;;;;;5053485;28;20540;-87
2022/01/20 12:11:22;;;;;;;24.20;14.47;;;7.10;96.70;;;;;;5035713;28;20168;-87
2022/01/20 12:13:50;;;;;;;30.50;16.30;;;7.10;96.60;;;;;;5035678;28;20711;-87
2022/01/20 12:16:24;;;;;;;23.63;14.93;;;7.10;96.80;;;;;;5055968;28;20302;-87
2022/01/20 12:18:55;;;;;;;26.77;15.60;;;7.10;96.70;;;;;;5057029;28;20693;-86
2022/01/20 12:21:22;;;;;;;22.50;14.00;;;7.10;96.80;;;;;;5039291;28;20194;-87
2022/01/20 12:23:50;;;;;;;24.40;13.60;;;7.10;96.60;;;;;;5056983;28;20719;-87
2022/01/20 12:26:16;;;;;;;21.27;14.07;;;7.10;96.10;;;;;;5057589;28;20174;-87
2022/01/20 12:28:42;;;;;;;24.07;14.30;;;7.10;96.70;;;;;;5058220;28;20206;-86
2022/01/20 12:31:09;;;;;;;20.90;14.57;;;7.10;96.50;;;;;;5044516;28;20186;-87
2022/01/20 12:33:40;;;;;;;19.93;13.73;;;7.10;96.00;;;;;;5045008;28;20630;-87
2022/01/20 12:36:15;;;;;;;22.17;14.53;;;7.00;96.10;;;;;;5045712;28;20545;-86
2022/01/20 12:38:41;;;;;;;25.07;14.07;;;7.00;95.80;;;;;;5062933;28;20177;-86
2022/01/20 12:41:15;;;;;;;23.03;13.30;;;6.90;95.90;;;;;;5063071;28;20259;-87
2022/01/20 12:43:57;;;;;;;23.17;13.87;;;6.80;96.30;;;;;;5065163;28;20543;-87
2022/01/20 12:46:29;;;;;;;20.53;14.57;;;6.80;96.20;;;;;;5064777;28;20184;-87
2022/01/20 12:49:07;;;;;;;22.07;13.43;;;6.80;96.60;;;;;;5063206;28;20176;-87
2022/01/20 12:51:48;;;;;;;22.73;15.63;;;6.90;96.40;;;;;;5063242;28;20628;-87
2022/01/20 12:54:29;;;;;;;24.17;16.20;;;6.90;96.60;;;;;;5046391;28;20174;-87
2022/01/20 12:57:06;;;;;;;27.57;16.53;;;6.80;96.70;;;;;;5064572;28;20166;-86
2022/01/20 12:59:37;;;;;;;26.63;17.70;;;6.60;96.90;;;;;;5063860;28;20166;-87
2022/01/20 13:02:07;;;;;;;22.13;15.50;;;6.50;97.20;;;;;;5065074;28;20177;-87
2022/01/20 13:04:36;;;;;;;30.80;16.10;;;6.50;97.30;;;;;;5047457;28;20250;-87
2022/01/20 13:07:03;;;;;;;25.50;15.47;;;6.60;97.30;;;;;;5045561;28;20214;-87
2022/01/20 13:09:43;;;;;;;29.23;16.13;;;6.60;96.80;;;;;;5063642;28;20257;-87
2022/01/20 13:12:11;;;;;;;20.83;14.37;;;6.70;96.80;;;;;;5043687;28;20173;-87
2022/01/20 13:14:40;;;;;;;21.83;15.30;;;6.60;96.80;;;;;;5044011;28;20172;-87
2022/01/20 13:17:08;;;;;;;24.03;15.30;;;6.60;96.80;;;;;;5059111;28;20709;-87
2022/01/20 13:19:45;;;;;;;24.33;16.50;;;6.60;96.90;;;;;;5038028;28;20178;-87
2022/01/20 13:22:43;;;;;;;27.83;15.27;;;6.70;97.00;;;;;;5039125;28;20248;-88
2022/01/20 13:25:15;;;;;;;24.17;15.03;;;6.60;96.30;;;;;;4999005;28;20203;-87
2022/01/20 13:27:55;;;;;;;21.70;14.43;;;6.70;96.40;;;;;;5001363;28;20215;-87
2022/01/20 13:30:30;;;;;;;26.67;15.17;;;6.70;96.50;;;;;;5003701;28;20193;-87
2022/01/20 13:32:58;;;;;;;20.93;13.90;;;6.70;96.40;;;;;;5007154;28;20166;-87
2022/01/20 13:35:25;;;;;;;21.80;15.60;;;6.70;96.50;;;;;;5010874;28;20191;-87
2022/01/20 13:37:59;;;;;;;23.40;13.77;;;6.70;96.70;;;;;;5003236;28;20219;-87
2022/01/20 13:40:25;;;;;;;26.40;15.27;;;6.70;96.40;;;;;;5000845;28;20174;-86